createdAt,value
2022-11-25T05:00:59.161Z,100320.69
2022-11-25T05:03:27.924Z,100315.17
2022-11-25T05:05:56.264Z,100313.71
2022-11-25T05:08:25.572Z,100317.16
2022-11-25T05:10:54.715Z,100319.92
2022-11-25T05:13:24.105Z,100317.66
2022-11-25T05:15:53.508Z,100316.75
2022-11-25T05:18:22.325Z,100323.34
2022-11-25T05:20:51.234Z,100329.81
2022-11-25T05:23:21.615Z,100328.56
2022-11-25T05:25:51.105Z,100331.98
2022-11-25T05:28:33.654Z,100329.30
2022-11-25T05:31:02.865Z,100327.95
2022-11-25T05:33:31.943Z,100327.80
2022-11-25T05:36:02.381Z,100330.39
2022-11-25T05:38:41.981Z,100337.59
2022-11-25T05:41:12.402Z,100343.27
2022-11-25T05:43:43.684Z,100346.11
2022-11-25T05:46:13.938Z,100343.02
2022-11-25T05:48:47.917Z,100345.85
2022-11-25T05:51:18.002Z,100346.04
2022-11-25T05:53:46.600Z,100349.91
2022-11-25T05:56:15.775Z,100352.04
2022-11-25T05:59:04.036Z,100349.45
2022-11-25T06:01:43.856Z,100351.41
2022-11-25T06:04:12.841Z,100349.47
2022-11-25T06:06:42.209Z,100356.08
2022-11-25T06:09:11.342Z,100357.09
2022-11-25T06:11:40.478Z,100362.36
2022-11-25T06:14:10.388Z,100366.66
2022-11-25T06:16:41.583Z,100368.29
2022-11-25T06:19:31.121Z,100369.35
2022-11-25T06:21:59.648Z,100372.16
2022-11-25T06:24:31.057Z,100373.63
2022-11-25T06:27:04.703Z,100373.34
2022-11-25T06:29:36.151Z,100376.54
2022-11-25T06:32:05.324Z,100377.77
2022-11-25T06:34:43.474Z,100375.84
2022-11-25T06:37:24.556Z,100380.67
2022-11-25T06:39:53.701Z,100380.48
2022-11-25T06:42:22.915Z,100386.45
2022-11-25T06:44:51.956Z,100380.04
2022-11-25T06:47:20.406Z,100381.73
2022-11-25T06:49:49.789Z,100386.14
2022-11-25T06:52:18.922Z,100386.22
2022-11-25T06:54:47.900Z,100386.23
2022-11-25T06:57:17.898Z,100388.94
2022-11-25T06:59:46.760Z,100394.02
2022-11-25T07:02:15.886Z,100396.09
2022-11-25T07:04:45.340Z,100400.12
2022-11-25T07:07:14.937Z,100398.47
2022-11-25T07:09:44.497Z,100402.45
2022-11-25T07:12:13.824Z,100404.53
2022-11-25T07:14:43.011Z,100403.43
2022-11-25T07:17:12.442Z,100404.43
2022-11-25T07:19:42.066Z,100403.55
2022-11-25T07:22:11.186Z,100403.70
2022-11-25T07:24:40.319Z,100406.79
2022-11-25T07:27:09.438Z,100406.71
2022-11-25T07:30:03.225Z,100407.38
2022-11-25T07:32:33.747Z,100408.56
2022-11-25T07:35:02.522Z,100414.55
2022-11-25T07:37:31.463Z,100416.89
2022-11-25T07:40:00.787Z,100420.52
2022-11-25T07:42:29.873Z,100418.16
2022-11-25T07:44:58.243Z,100416.19
2022-11-25T07:47:44.503Z,100416.31
2022-11-25T07:50:14.552Z,100418.60
2022-11-25T07:52:43.034Z,100420.10
2022-11-25T07:55:11.227Z,100423.02
2022-11-25T07:57:39.831Z,100426.05
2022-11-25T08:00:08.953Z,100425.06
2022-11-25T08:02:41.224Z,100426.45
2022-11-25T08:05:11.850Z,100429.95
2022-11-25T08:07:41.036Z,100429.15
2022-11-25T08:10:10.567Z,100428.83
2022-11-25T08:12:39.708Z,100430.27
2022-11-25T08:15:08.851Z,100431.40
2022-11-25T08:17:38.339Z,100434.38
2022-11-25T08:20:07.343Z,100434.18
2022-11-25T08:22:36.410Z,100435.91
2022-11-25T08:25:04.797Z,100436.22
2022-11-25T08:27:34.016Z,100437.03
2022-11-25T08:30:02.776Z,100436.19
2022-11-25T08:32:31.859Z,100439.48
2022-11-25T08:35:00.379Z,100440.77
2022-11-25T08:37:31.067Z,100442.06
2022-11-25T08:40:00.051Z,100440.85
2022-11-25T08:42:28.588Z,100443.04
2022-11-25T08:44:57.266Z,100443.80
2022-11-25T08:47:26.019Z,100443.08
2022-11-25T08:49:54.349Z,100444.86
2022-11-25T08:52:23.025Z,100444.45
2022-11-25T08:54:51.293Z,100446.23
2022-11-25T08:57:19.470Z,100447.50
2022-11-25T08:59:47.726Z,100448.42
2022-11-25T09:02:17.662Z,100449.89
2022-11-25T09:04:46.124Z,100451.33
2022-11-25T09:07:14.430Z,100453.92
2022-11-25T09:09:42.742Z,100457.73
2022-11-25T09:12:11.063Z,100458.04
2022-11-25T09:14:40.697Z,100461.38
2022-11-25T09:17:10.511Z,100462.73
2022-11-25T09:19:39.105Z,100463.52
2022-11-25T09:22:07.780Z,100463.29
2022-11-25T09:24:36.113Z,100467.15
2022-11-25T09:27:04.518Z,100468.23
2022-11-25T09:29:32.907Z,100470.99
2022-11-25T09:32:01.231Z,100477.01
2022-11-25T09:34:29.537Z,100475.00
2022-11-25T09:36:57.793Z,100476.64
2022-11-25T09:39:30.028Z,100475.52
2022-11-25T09:42:26.428Z,100477.42
2022-11-25T09:45:24.306Z,100474.97
2022-11-25T09:47:59.007Z,100477.52
2022-11-25T09:50:37.398Z,100476.12
2022-11-25T09:53:24.840Z,100482.82
2022-11-25T09:56:01.213Z,100484.19
2022-11-25T09:58:31.168Z,100483.07
2022-11-25T10:01:01.245Z,100484.80
2022-11-25T10:03:34.052Z,100486.31
2022-11-25T10:06:06.979Z,100488.55
2022-11-25T10:08:40.066Z,100486.09
2022-11-25T10:11:22.513Z,100485.73
2022-11-25T10:14:03.908Z,100483.67
2022-11-25T10:16:36.569Z,100483.15
2022-11-25T10:19:17.191Z,100483.66
2022-11-25T10:21:46.977Z,100484.27
2022-11-25T10:24:18.640Z,100487.98
2022-11-25T10:26:56.714Z,100488.47
2022-11-25T10:29:30.086Z,100491.76
2022-11-25T10:32:18.858Z,100488.61
2022-11-25T10:34:58.811Z,100496.80
2022-11-25T10:37:29.571Z,100491.67
2022-11-25T10:39:58.182Z,100493.29
2022-11-25T10:42:33.298Z,100494.31
2022-11-25T10:45:09.516Z,100495.89
2022-11-25T10:47:42.902Z,100497.45
2022-11-25T10:50:31.441Z,100498.11
2022-11-25T10:53:00.857Z,100495.36
2022-11-25T10:55:31.909Z,100492.67
2022-11-25T10:58:27.585Z,100486.89
2022-11-25T11:01:03.457Z,100490.52
2022-11-25T11:03:33.977Z,100491.75
2022-11-25T11:06:02.983Z,100487.84
2022-11-25T11:08:41.366Z,100490.24
2022-11-25T11:11:13.714Z,100495.98
2022-11-25T11:13:42.619Z,100496.03
2022-11-25T11:16:38.054Z,100495.17
2022-11-25T11:19:20.425Z,100495.93
2022-11-25T11:21:49.969Z,100491.23
2022-11-25T11:24:36.226Z,100494.63
2022-11-25T11:27:08.163Z,100491.77
2022-11-25T11:29:37.497Z,100488.44
2022-11-25T11:32:08.785Z,100490.15
2022-11-25T11:34:53.088Z,100494.29
2022-11-25T11:37:54.445Z,100492.27
2022-11-25T11:40:41.610Z,100498.92
2022-11-25T11:43:50.166Z,100494.44
2022-11-25T11:46:20.096Z,100495.07
2022-11-25T11:48:53.485Z,100487.86
2022-11-25T11:51:22.860Z,100485.45
2022-11-25T11:54:04.287Z,100487.27
2022-11-25T11:56:41.708Z,100490.03
2022-11-25T11:59:16.723Z,100494.91
2022-11-25T12:01:48.530Z,100492.63
2022-11-25T12:04:22.101Z,100494.60
2022-11-25T12:07:14.034Z,100497.80
2022-11-25T12:09:46.675Z,100498.39
2022-11-25T12:12:22.559Z,100501.05
2022-11-25T12:14:56.148Z,100503.58
2022-11-25T12:17:31.804Z,100506.55
2022-11-25T12:20:07.523Z,100505.80
2022-11-25T12:22:39.074Z,100505.30
2022-11-25T12:25:14.696Z,100506.06
2022-11-25T12:27:53.380Z,100507.58
2022-11-25T12:30:23.620Z,100511.36
2022-11-25T12:33:08.274Z,100510.66
2022-11-25T12:35:37.911Z,100511.31
2022-11-25T12:38:19.038Z,100513.22
2022-11-25T12:40:51.350Z,100512.42
2022-11-25T12:43:20.843Z,100516.61
2022-11-25T12:45:52.528Z,100510.84
2022-11-25T12:48:21.690Z,100512.69
2022-11-25T12:51:03.268Z,100515.02
2022-11-25T12:53:44.504Z,100517.58
2022-11-25T12:56:22.054Z,100519.30
2022-11-25T12:59:07.060Z,100515.67
2022-11-25T13:01:38.925Z,100518.52
2022-11-25T13:04:29.809Z,100519.24
2022-11-25T13:07:10.962Z,100525.41
2022-11-25T13:09:52.553Z,100532.41
2022-11-25T13:12:28.653Z,100533.68
2022-11-25T13:15:16.583Z,100537.33
2022-11-25T13:17:48.212Z,100538.24
2022-11-25T13:20:29.197Z,100542.48
2022-11-25T13:23:10.755Z,100546.45
2022-11-25T13:25:44.233Z,100545.83
2022-11-25T13:28:31.730Z,100544.09
2022-11-25T13:31:20.818Z,100546.25
2022-11-25T13:33:50.043Z,100542.19
2022-11-25T13:36:18.500Z,100543.39
2022-11-25T13:38:50.690Z,100546.35
2022-11-25T13:41:46.351Z,100542.20
2022-11-25T13:44:29.074Z,100540.06
2022-11-25T13:46:58.871Z,100541.77
2022-11-25T13:49:28.062Z,100544.83
2022-11-25T13:52:23.022Z,100548.05
2022-11-25T13:54:56.702Z,100550.08
2022-11-25T13:57:28.654Z,100547.60
2022-11-25T13:59:59.454Z,100548.08
2022-11-25T14:02:28.260Z,100551.67
2022-11-25T14:05:08.141Z,100557.39
2022-11-25T14:07:55.316Z,100557.55
2022-11-25T14:10:26.959Z,100557.70
2022-11-25T14:13:02.168Z,100561.60
2022-11-25T14:15:53.780Z,100559.92
2022-11-25T14:19:11.944Z,100560.27
2022-11-25T14:21:38.122Z,100565.70
2022-11-25T14:24:27.335Z,100566.06
2022-11-25T14:26:57.750Z,100570.34
2022-11-25T14:29:49.836Z,100575.61
2022-11-25T14:32:24.999Z,100572.92
2022-11-25T14:34:57.708Z,100581.11
2022-11-25T14:37:56.117Z,100583.59
2022-11-25T14:40:47.116Z,100585.38
2022-11-25T14:43:23.810Z,100587.10
2022-11-25T14:46:11.250Z,100586.05
2022-11-25T14:48:40.039Z,100585.99
2022-11-25T14:51:19.917Z,100587.27
2022-11-25T14:53:50.209Z,100589.34
2022-11-25T14:56:24.335Z,100595.43
2022-11-25T14:58:54.294Z,100599.98
2022-11-25T15:01:24.743Z,100597.13
2022-11-25T15:04:01.928Z,100599.88
2022-11-25T15:06:37.347Z,100600.79
2022-11-25T15:09:18.751Z,100604.31
2022-11-25T15:11:48.403Z,100604.23
2022-11-25T15:14:28.371Z,100608.75
2022-11-25T15:16:58.015Z,100612.75
2022-11-25T15:19:33.376Z,100611.84
2022-11-25T15:22:23.563Z,100610.10
2022-11-25T15:24:55.957Z,100609.73
2022-11-25T15:27:30.522Z,100608.66
2022-11-25T15:29:59.236Z,100609.16
2022-11-25T15:32:29.563Z,100608.52
2022-11-25T15:34:59.681Z,100612.16
2022-11-25T15:37:28.672Z,100617.18
2022-11-25T15:40:15.629Z,100618.04
2022-11-25T15:42:44.706Z,100615.45
2022-11-25T15:45:22.041Z,100617.29
2022-11-25T15:47:51.439Z,100615.91
2022-11-25T15:50:27.365Z,100617.58
2022-11-25T15:52:59.860Z,100619.50
2022-11-25T15:55:33.667Z,100621.79
2022-11-25T15:58:08.504Z,100618.77
2022-11-25T16:00:38.218Z,100620.97
2022-11-25T16:03:20.223Z,100621.25
2022-11-25T16:05:53.587Z,100624.42
2022-11-25T16:08:31.310Z,100626.52
2022-11-25T16:11:16.454Z,100632.27
2022-11-25T16:13:46.477Z,100627.77
2022-11-25T16:16:17.328Z,100629.05
2022-11-25T16:18:46.698Z,100630.93
2022-11-25T16:21:17.504Z,100629.14
2022-11-25T16:23:53.523Z,100630.23
2022-11-25T16:26:22.651Z,100624.85
2022-11-25T16:28:53.293Z,100626.63
2022-11-25T16:31:23.006Z,100626.02
2022-11-25T16:33:54.589Z,100623.64
2022-11-25T16:36:24.046Z,100623.38
2022-11-25T16:38:57.776Z,100620.20
2022-11-25T16:41:27.648Z,100618.89
2022-11-25T16:44:02.539Z,100621.92
2022-11-25T16:46:36.173Z,100624.79
2022-11-25T16:49:13.461Z,100622.80
2022-11-25T16:51:43.104Z,100622.86
2022-11-25T16:54:13.767Z,100627.38
2022-11-25T16:56:44.471Z,100632.50
2022-11-25T16:59:18.613Z,100634.77
2022-11-25T17:01:48.597Z,100628.88
2022-11-25T17:04:17.550Z,100629.42
2022-11-25T17:07:09.542Z,100631.90
2022-11-25T17:09:36.425Z,100634.90
2022-11-25T17:12:05.844Z,100631.41
2022-11-25T17:14:36.540Z,100629.31
2022-11-25T17:17:05.682Z,100631.81
2022-11-25T17:19:34.573Z,100633.13
2022-11-25T17:22:03.151Z,100634.81
2022-11-25T17:24:31.683Z,100632.94
2022-11-25T17:27:02.269Z,100635.41
2022-11-25T17:29:36.503Z,100637.77
2022-11-25T17:32:05.412Z,100638.80
2022-11-25T17:34:38.122Z,100639.67
2022-11-25T17:37:26.908Z,100646.77
2022-11-25T17:39:55.856Z,100646.53
2022-11-25T17:42:28.994Z,100646.41
2022-11-25T17:44:57.691Z,100643.79
2022-11-25T17:47:26.585Z,100642.15
2022-11-25T17:49:55.653Z,100642.09
2022-11-25T17:52:24.441Z,100642.20
2022-11-25T17:54:52.749Z,100643.17
2022-11-25T17:57:22.251Z,100643.45
2022-11-25T17:59:51.308Z,100650.04
2022-11-25T18:02:21.021Z,100657.27
2022-11-25T18:04:49.926Z,100654.73
2022-11-25T18:07:18.482Z,100656.23
2022-11-25T18:09:47.013Z,100657.52
2022-11-25T18:12:29.527Z,100656.83
2022-11-25T18:14:59.204Z,100659.84
2022-11-25T18:17:28.211Z,100660.99
2022-11-25T18:19:57.637Z,100660.09
2022-11-25T18:22:27.455Z,100670.34
2022-11-25T18:24:56.723Z,100677.09
2022-11-25T18:27:27.459Z,100677.73
2022-11-25T18:29:57.729Z,100679.77
2022-11-25T18:32:27.032Z,100682.73
2022-11-25T18:34:55.945Z,100681.52
2022-11-25T18:37:28.600Z,100683.66
2022-11-25T18:39:59.363Z,100686.09
2022-11-25T18:42:29.568Z,100688.98
2022-11-25T18:44:58.766Z,100688.98
2022-11-25T18:47:29.309Z,100689.23
2022-11-25T18:49:59.434Z,100683.08
2022-11-25T18:52:27.958Z,100683.44
2022-11-25T18:54:56.773Z,100685.52
2022-11-25T18:57:25.324Z,100686.33
2022-11-25T19:00:17.234Z,100682.52
2022-11-25T19:02:45.104Z,100688.96
2022-11-25T19:05:18.722Z,100691.89
2022-11-25T19:07:49.129Z,100696.46
2022-11-25T19:10:18.099Z,100693.95
2022-11-25T19:12:50.721Z,100696.22
2022-11-25T19:15:20.719Z,100695.84
2022-11-25T19:17:52.575Z,100698.61
2022-11-25T19:20:22.643Z,100701.65
2022-11-25T19:22:51.632Z,100701.70
2022-11-25T19:25:21.641Z,100706.27
2022-11-25T19:27:54.912Z,100709.83
2022-11-25T19:30:26.324Z,100708.98
2022-11-25T19:32:57.052Z,100711.85
2022-11-25T19:35:43.767Z,100717.63
2022-11-25T19:38:20.817Z,100722.70
2022-11-25T19:40:49.699Z,100722.77
2022-11-25T19:43:18.254Z,100724.76
2022-11-25T19:45:47.076Z,100724.81
2022-11-25T19:48:19.415Z,100730.17
2022-11-25T19:50:51.147Z,100735.46
2022-11-25T19:53:21.736Z,100737.17
2022-11-25T19:55:50.920Z,100731.64
2022-11-25T19:58:20.363Z,100733.91
2022-11-25T20:00:49.076Z,100734.80
2022-11-25T20:03:22.848Z,100735.89
2022-11-25T20:05:52.592Z,100737.04
2022-11-25T20:08:23.005Z,100739.42
2022-11-25T20:10:52.271Z,100741.14
2022-11-25T20:13:21.331Z,100744.95
2022-11-25T20:15:50.539Z,100747.48
2022-11-25T20:18:22.508Z,100750.92
2022-11-25T20:20:57.589Z,100751.04
2022-11-25T20:23:28.981Z,100757.18
2022-11-25T20:25:57.682Z,100758.20
2022-11-25T20:28:28.342Z,100759.50
2022-11-25T20:30:59.875Z,100756.17
2022-11-25T20:33:28.826Z,100762.05
2022-11-25T20:36:03.707Z,100763.83
2022-11-25T20:38:34.500Z,100764.91
2022-11-25T20:41:05.074Z,100762.52
2022-11-25T20:43:37.188Z,100764.34
2022-11-25T20:46:07.449Z,100765.30
2022-11-25T20:48:38.951Z,100767.36
2022-11-25T20:51:15.229Z,100769.63
2022-11-25T20:53:46.636Z,100769.64
2022-11-25T20:56:17.861Z,100778.34
2022-11-25T20:58:47.259Z,100774.76
2022-11-25T21:01:15.979Z,100777.85
2022-11-25T21:03:45.975Z,100774.86
2022-11-25T21:06:28.232Z,100772.74
2022-11-25T21:08:59.040Z,100778.89
2022-11-25T21:11:28.845Z,100780.65
2022-11-25T21:13:58.114Z,100782.48
2022-11-25T21:16:28.353Z,100779.38
2022-11-25T21:18:57.412Z,100780.87
2022-11-25T21:21:33.715Z,100779.95
2022-11-25T21:24:06.685Z,100780.83
2022-11-25T21:26:35.892Z,100787.39
2022-11-25T21:29:05.246Z,100785.83
2022-11-25T21:31:34.475Z,100789.43
2022-11-25T21:34:09.856Z,100789.30
2022-11-25T21:36:40.218Z,100793.37
2022-11-25T21:39:24.528Z,100794.46
2022-11-25T21:41:54.246Z,100796.45
2022-11-25T21:44:28.864Z,100796.02
2022-11-25T21:46:57.664Z,100801.41
2022-11-25T21:49:27.352Z,100804.27
2022-11-25T21:51:56.019Z,100804.20
2022-11-25T21:54:24.338Z,100807.09
2022-11-25T21:56:53.874Z,100807.77
2022-11-25T21:59:23.041Z,100810.45
2022-11-25T22:01:52.508Z,100811.59
2022-11-25T22:04:23.115Z,100812.06
2022-11-25T22:06:52.051Z,100814.13
2022-11-25T22:09:21.071Z,100813.31
2022-11-25T22:11:50.940Z,100812.36
2022-11-25T22:14:25.724Z,100814.20
2022-11-25T22:16:55.777Z,100814.44
2022-11-25T22:19:27.206Z,100813.52
2022-11-25T22:21:56.637Z,100812.02
2022-11-25T22:24:25.514Z,100815.65
2022-11-25T22:31:18.587Z,100825.64
2022-11-25T22:33:48.092Z,100829.13
2022-11-25T22:36:29.727Z,100832.82
2022-11-25T22:39:14.759Z,100837.04
2022-11-25T22:41:47.023Z,100834.02
2022-11-25T22:44:19.610Z,100836.25
2022-11-25T22:46:50.492Z,100837.00
2022-11-25T22:49:40.726Z,100838.52
2022-11-25T22:52:18.660Z,100838.52
2022-11-25T22:54:48.339Z,100838.91
2022-11-25T22:57:18.174Z,100837.40
2022-11-25T22:59:48.912Z,100835.48
2022-11-25T23:02:27.951Z,100837.70
2022-11-25T23:04:57.735Z,100841.64
2022-11-25T23:07:28.721Z,100844.16
2022-11-25T23:09:59.173Z,100847.40
2022-11-25T23:12:28.558Z,100846.86
2022-11-25T23:14:57.874Z,100849.25
2022-11-25T23:17:26.834Z,100847.80
2022-11-25T23:19:56.870Z,100850.96
2022-11-25T23:22:25.905Z,100853.00
2022-11-25T23:24:54.456Z,100850.77
2022-11-25T23:27:23.588Z,100849.95
2022-11-25T23:29:52.856Z,100849.29
2022-11-25T23:32:22.006Z,100851.63
2022-11-25T23:34:51.624Z,100857.12
2022-11-25T23:37:20.608Z,100859.69
2022-11-25T23:39:51.473Z,100863.92
2022-11-25T23:42:21.221Z,100862.04
2022-11-25T23:44:50.604Z,100861.34
2022-11-25T23:47:22.033Z,100865.95
2022-11-25T23:49:52.855Z,100866.27
2022-11-25T23:52:28.563Z,100869.58
2022-11-25T23:54:58.645Z,100872.19
2022-11-25T23:57:32.012Z,100873.03
